sensor_id;sensor_type;location;lat;lon;timestamp;P1;durP1;ratioP1;P2;durP2;ratioP2
6249;SDS011;3158;52.148;11.568;2023-03-01T00:00:01;2.30;;;2.00;;
6249;SDS011;3158;52.148;11.568;2023-03-01T00:05:11;2.53;;;1.70;;
6249;SDS011;3158;52.148;11.568;2023-03-01T00:10:12;2.90;;;1.83;;
6249;SDS011;3158;52.148;11.568;2023-03-01T00:15:14;2.80;;;2.07;;
6249;SDS011;3158;52.148;11.568;2023-03-01T00:20:15;2.03;;;1.53;;
6249;SDS011;3158;52.148;11.568;2023-03-01T00:25:16;1.70;;;1.37;;
6249;SDS011;3158;52.148;11.568;2023-03-01T00:30:17;1.30;;;1.23;;
6249;SDS011;3158;52.148;11.568;2023-03-01T00:35:19;2.73;;;1.80;;
6249;SDS011;3158;52.148;11.568;2023-03-01T00:40:20;2.43;;;1.77;;
6249;SDS011;3158;52.148;11.568;2023-03-01T00:45:21;2.83;;;1.50;;
6249;SDS011;3158;52.148;11.568;2023-03-01T00:50:23;1.33;;;1.23;;
6249;SDS011;3158;52.148;11.568;2023-03-01T00:55:24;2.03;;;1.73;;
6249;SDS011;3158;52.148;11.568;2023-03-01T01:00:25;2.87;;;1.27;;
6249;SDS011;3158;52.148;11.568;2023-03-01T01:05:27;5.93;;;1.63;;
6249;SDS011;3158;52.148;11.568;2023-03-01T01:10:29;1.63;;;1.57;;
6249;SDS011;3158;52.148;11.568;2023-03-01T01:15:33;1.83;;;1.57;;
6249;SDS011;3158;52.148;11.568;2023-03-01T01:20:35;1.57;;;1.47;;
6249;SDS011;3158;52.148;11.568;2023-03-01T01:25:36;3.27;;;1.80;;
6249;SDS011;3158;52.148;11.568;2023-03-01T01:30:37;1.57;;;1.50;;
6249;SDS011;3158;52.148;11.568;2023-03-01T01:35:38;1.60;;;1.40;;
6249;SDS011;3158;52.148;11.568;2023-03-01T01:40:46;2.60;;;1.40;;
6249;SDS011;3158;52.148;11.568;2023-03-01T01:45:47;2.70;;;2.13;;
6249;SDS011;3158;52.148;11.568;2023-03-01T01:50:51;1.27;;;1.27;;
6249;SDS011;3158;52.148;11.568;2023-03-01T01:55:56;1.47;;;1.00;;
6249;SDS011;3158;52.148;11.568;2023-03-01T02:00:59;1.93;;;1.83;;
6249;SDS011;3158;52.148;11.568;2023-03-01T02:11:03;4.17;;;1.60;;
6249;SDS011;3158;52.148;11.568;2023-03-01T02:16:11;3.03;;;2.03;;
6249;SDS011;3158;52.148;11.568;2023-03-01T02:21:20;2.00;;;1.90;;
6249;SDS011;3158;52.148;11.568;2023-03-01T02:26:30;2.67;;;1.30;;
6249;SDS011;3158;52.148;11.568;2023-03-01T02:31:34;1.63;;;1.33;;
6249;SDS011;3158;52.148;11.568;2023-03-01T02:36:45;1.57;;;1.23;;
6249;SDS011;3158;52.148;11.568;2023-03-01T02:41:49;7.40;;;2.43;;
6249;SDS011;3158;52.148;11.568;2023-03-01T02:46:51;1.67;;;1.57;;
6249;SDS011;3158;52.148;11.568;2023-03-01T02:57:14;1.83;;;1.40;;
6249;SDS011;3158;52.148;11.568;2023-03-01T03:02:20;5.03;;;1.43;;
6249;SDS011;3158;52.148;11.568;2023-03-01T03:07:36;2.13;;;1.30;;
6249;SDS011;3158;52.148;11.568;2023-03-01T03:12:38;3.73;;;1.73;;
6249;SDS011;3158;52.148;11.568;2023-03-01T03:17:41;4.00;;;1.57;;
6249;SDS011;3158;52.148;11.568;2023-03-01T03:22:43;2.23;;;1.40;;
6249;SDS011;3158;52.148;11.568;2023-03-01T03:27:44;1.13;;;0.93;;
6249;SDS011;3158;52.148;11.568;2023-03-01T03:32:46;1.13;;;1.07;;
6249;SDS011;3158;52.148;11.568;2023-03-01T03:37:51;1.90;;;1.80;;
6249;SDS011;3158;52.148;11.568;2023-03-01T03:43:02;1.63;;;1.30;;
6249;SDS011;3158;52.148;11.568;2023-03-01T03:48:05;3.40;;;1.03;;
6249;SDS011;3158;52.148;11.568;2023-03-01T03:53:10;1.47;;;1.00;;
6249;SDS011;3158;52.148;11.568;2023-03-01T03:58:11;1.67;;;1.03;;
6249;SDS011;3158;52.148;11.568;2023-03-01T04:03:13;2.63;;;1.40;;
6249;SDS011;3158;52.148;11.568;2023-03-01T04:08:16;3.53;;;1.60;;
6249;SDS011;3158;52.148;11.568;2023-03-01T04:13:20;1.40;;;1.30;;
6249;SDS011;3158;52.148;11.568;2023-03-01T04:18:22;1.60;;;1.37;;
6249;SDS011;3158;52.148;11.568;2023-03-01T04:23:24;3.43;;;1.17;;
6249;SDS011;3158;52.148;11.568;2023-03-01T04:28:30;1.90;;;1.00;;
6249;SDS011;3158;52.148;11.568;2023-03-01T04:33:33;1.33;;;1.23;;
6249;SDS011;3158;52.148;11.568;2023-03-01T04:38:35;5.53;;;1.50;;
6249;SDS011;3158;52.148;11.568;2023-03-01T04:43:37;1.53;;;1.43;;
6249;SDS011;3158;52.148;11.568;2023-03-01T04:48:40;1.03;;;1.03;;
6249;SDS011;3158;52.148;11.568;2023-03-01T04:53:42;1.77;;;1.63;;
6249;SDS011;3158;52.148;11.568;2023-03-01T04:58:43;1.47;;;1.20;;
6249;SDS011;3158;52.148;11.568;2023-03-01T05:03:46;2.30;;;1.60;;
6249;SDS011;3158;52.148;11.568;2023-03-01T05:08:47;4.87;;;1.43;;
6249;SDS011;3158;52.148;11.568;2023-03-01T05:13:48;2.13;;;1.60;;
6249;SDS011;3158;52.148;11.568;2023-03-01T05:18:54;4.03;;;1.80;;
6249;SDS011;3158;52.148;11.568;2023-03-01T05:23:56;2.73;;;1.50;;
6249;SDS011;3158;52.148;11.568;2023-03-01T05:28:57;2.37;;;2.23;;
6249;SDS011;3158;52.148;11.568;2023-03-01T05:33:59;1.67;;;1.40;;
6249;SDS011;3158;52.148;11.568;2023-03-01T05:39:00;1.53;;;1.43;;
6249;SDS011;3158;52.148;11.568;2023-03-01T05:44:01;6.00;;;1.50;;
6249;SDS011;3158;52.148;11.568;2023-03-01T05:49:04;1.83;;;1.63;;
6249;SDS011;3158;52.148;11.568;2023-03-01T05:54:06;5.60;;;1.77;;
6249;SDS011;3158;52.148;11.568;2023-03-01T05:59:07;1.93;;;1.83;;
6249;SDS011;3158;52.148;11.568;2023-03-01T06:04:08;3.73;;;1.67;;
6249;SDS011;3158;52.148;11.568;2023-03-01T06:09:10;3.27;;;1.87;;
6249;SDS011;3158;52.148;11.568;2023-03-01T06:14:11;1.87;;;1.03;;
6249;SDS011;3158;52.148;11.568;2023-03-01T06:19:14;1.60;;;1.50;;
6249;SDS011;3158;52.148;11.568;2023-03-01T06:24:15;2.27;;;1.40;;
6249;SDS011;3158;52.148;11.568;2023-03-01T06:29:16;1.60;;;1.50;;
6249;SDS011;3158;52.148;11.568;2023-03-01T06:34:18;1.97;;;1.30;;
6249;SDS011;3158;52.148;11.568;2023-03-01T06:39:19;4.90;;;1.40;;
6249;SDS011;3158;52.148;11.568;2023-03-01T06:44:20;1.83;;;1.40;;
6249;SDS011;3158;52.148;11.568;2023-03-01T06:49:21;1.93;;;1.40;;
6249;SDS011;3158;52.148;11.568;2023-03-01T06:54:23;1.70;;;1.60;;
6249;SDS011;3158;52.148;11.568;2023-03-01T06:59:24;2.90;;;1.47;;
6249;SDS011;3158;52.148;11.568;2023-03-01T07:04:25;1.57;;;1.47;;
6249;SDS011;3158;52.148;11.568;2023-03-01T07:09:28;6.90;;;2.23;;
6249;SDS011;3158;52.148;11.568;2023-03-01T07:14:29;3.13;;;1.60;;
6249;SDS011;3158;52.148;11.568;2023-03-01T07:19:31;2.73;;;1.77;;
6249;SDS011;3158;52.148;11.568;2023-03-01T07:24:32;6.07;;;2.40;;
6249;SDS011;3158;52.148;11.568;2023-03-01T07:29:33;1.87;;;1.70;;
6249;SDS011;3158;52.148;11.568;2023-03-01T07:34:38;3.27;;;1.57;;
6249;SDS011;3158;52.148;11.568;2023-03-01T07:39:40;4.60;;;2.20;;
6249;SDS011;3158;52.148;11.568;2023-03-01T07:44:41;4.63;;;2.37;;
6249;SDS011;3158;52.148;11.568;2023-03-01T07:49:42;3.67;;;3.03;;
6249;SDS011;3158;52.148;11.568;2023-03-01T07:54:43;12.17;;;3.20;;
6249;SDS011;3158;52.148;11.568;2023-03-01T07:59:44;6.17;;;4.00;;
6249;SDS011;3158;52.148;11.568;2023-03-01T08:04:46;4.00;;;3.40;;
6249;SDS011;3158;52.148;11.568;2023-03-01T08:09:47;3.80;;;3.40;;
6249;SDS011;3158;52.148;11.568;2023-03-01T08:14:49;8.65;;;4.35;;
6249;SDS011;3158;52.148;11.568;2023-03-01T08:19:50;2.80;;;2.60;;
6249;SDS011;3158;52.148;11.568;2023-03-01T08:24:51;5.78;;;3.50;;
6249;SDS011;3158;52.148;11.568;2023-03-01T08:29:52;6.45;;;3.33;;
6249;SDS011;3158;52.148;11.568;2023-03-01T08:34:53;3.60;;;2.83;;
6249;SDS011;3158;52.148;11.568;2023-03-01T08:39:54;4.30;;;2.67;;
6249;SDS011;3158;52.148;11.568;2023-03-01T08:44:56;4.20;;;2.70;;
6249;SDS011;3158;52.148;11.568;2023-03-01T08:49:57;3.45;;;2.85;;
6249;SDS011;3158;52.148;11.568;2023-03-01T08:54:58;2.93;;;2.63;;
6249;SDS011;3158;52.148;11.568;2023-03-01T09:00:02;6.18;;;3.28;;
6249;SDS011;3158;52.148;11.568;2023-03-01T09:05:03;6.13;;;3.30;;
6249;SDS011;3158;52.148;11.568;2023-03-01T09:10:05;2.80;;;2.60;;
6249;SDS011;3158;52.148;11.568;2023-03-01T09:15:06;3.03;;;2.75;;
6249;SDS011;3158;52.148;11.568;2023-03-01T09:20:07;3.30;;;3.10;;
6249;SDS011;3158;52.148;11.568;2023-03-01T09:25:09;5.40;;;3.28;;
6249;SDS011;3158;52.148;11.568;2023-03-01T09:30:10;2.78;;;2.67;;
6249;SDS011;3158;52.148;11.568;2023-03-01T09:35:11;4.35;;;3.25;;
6249;SDS011;3158;52.148;11.568;2023-03-01T09:40:14;5.82;;;4.32;;
6249;SDS011;3158;52.148;11.568;2023-03-01T09:45:27;4.15;;;3.42;;
6249;SDS011;3158;52.148;11.568;2023-03-01T09:50:33;5.05;;;3.75;;
6249;SDS011;3158;52.148;11.568;2023-03-01T09:55:45;3.80;;;3.28;;
6249;SDS011;3158;52.148;11.568;2023-03-01T10:00:49;3.75;;;2.85;;
6249;SDS011;3158;52.148;11.568;2023-03-01T10:05:58;4.88;;;2.75;;
6249;SDS011;3158;52.148;11.568;2023-03-01T10:11:00;3.53;;;2.53;;
6249;SDS011;3158;52.148;11.568;2023-03-01T10:16:04;3.03;;;2.72;;
6249;SDS011;3158;52.148;11.568;2023-03-01T10:21:14;4.60;;;3.28;;
6249;SDS011;3158;52.148;11.568;2023-03-01T10:31:22;4.22;;;2.60;;
6249;SDS011;3158;52.148;11.568;2023-03-01T10:36:28;3.38;;;2.97;;
6249;SDS011;3158;52.148;11.568;2023-03-01T10:41:33;3.65;;;3.13;;
6249;SDS011;3158;52.148;11.568;2023-03-01T10:46:37;2.85;;;2.65;;
6249;SDS011;3158;52.148;11.568;2023-03-01T10:51:39;3.58;;;2.60;;
6249;SDS011;3158;52.148;11.568;2023-03-01T10:56:47;2.80;;;2.70;;
6249;SDS011;3158;52.148;11.568;2023-03-01T11:02:01;4.70;;;3.28;;
6249;SDS011;3158;52.148;11.568;2023-03-01T11:07:02;2.90;;;2.70;;
6249;SDS011;3158;52.148;11.568;2023-03-01T11:12:04;3.40;;;2.67;;
6249;SDS011;3158;52.148;11.568;2023-03-01T11:17:17;2.72;;;2.53;;
6249;SDS011;3158;52.148;11.568;2023-03-01T11:22:19;3.83;;;2.50;;
6249;SDS011;3158;52.148;11.568;2023-03-01T11:27:23;3.90;;;2.58;;
6249;SDS011;3158;52.148;11.568;2023-03-01T11:32:26;2.10;;;2.00;;
6249;SDS011;3158;52.148;11.568;2023-03-01T11:37:32;2.85;;;2.28;;
6249;SDS011;3158;52.148;11.568;2023-03-01T11:42:46;4.10;;;2.97;;
6249;SDS011;3158;52.148;11.568;2023-03-01T12:19:29;2.40;;;2.30;;
6249;SDS011;3158;52.148;11.568;2023-03-01T12:24:39;2.67;;;2.00;;
6249;SDS011;3158;52.148;11.568;2023-03-01T12:29:47;1.83;;;1.73;;
6249;SDS011;3158;52.148;11.568;2023-03-01T12:35:05;2.20;;;2.10;;
6249;SDS011;3158;52.148;11.568;2023-03-01T12:45:47;2.28;;;2.08;;
6249;SDS011;3158;52.148;11.568;2023-03-01T12:50:54;2.35;;;2.20;;
6249;SDS011;3158;52.148;11.568;2023-03-01T12:55:58;2.70;;;2.20;;
6249;SDS011;3158;52.148;11.568;2023-03-01T13:01:11;2.95;;;2.08;;
6249;SDS011;3158;52.148;11.568;2023-03-01T13:06:20;3.22;;;2.20;;
6249;SDS011;3158;52.148;11.568;2023-03-01T13:11:25;2.03;;;1.92;;
6249;SDS011;3158;52.148;11.568;2023-03-01T13:21:30;2.40;;;2.20;;
6249;SDS011;3158;52.148;11.568;2023-03-01T13:26:31;4.03;;;2.20;;
6249;SDS011;3158;52.148;11.568;2023-03-01T13:31:56;3.13;;;2.08;;
6249;SDS011;3158;52.148;11.568;2023-03-01T13:37:08;2.00;;;1.90;;
6249;SDS011;3158;52.148;11.568;2023-03-01T13:42:29;2.08;;;1.98;;
6249;SDS011;3158;52.148;11.568;2023-03-01T13:47:32;1.65;;;1.55;;
6249;SDS011;3158;52.148;11.568;2023-03-01T13:52:36;2.35;;;2.13;;
6249;SDS011;3158;52.148;11.568;2023-03-01T13:57:39;1.85;;;1.75;;
6249;SDS011;3158;52.148;11.568;2023-03-01T14:02:42;2.08;;;1.80;;
6249;SDS011;3158;52.148;11.568;2023-03-01T14:07:50;1.77;;;1.67;;
6249;SDS011;3158;52.148;11.568;2023-03-01T14:13:17;1.95;;;1.75;;
6249;SDS011;3158;52.148;11.568;2023-03-01T14:18:21;1.58;;;1.42;;
6249;SDS011;3158;52.148;11.568;2023-03-01T14:23:25;4.45;;;1.60;;
6249;SDS011;3158;52.148;11.568;2023-03-01T14:28:28;3.22;;;1.48;;
6249;SDS011;3158;52.148;11.568;2023-03-01T14:33:30;1.80;;;1.80;;
6249;SDS011;3158;52.148;11.568;2023-03-01T14:38:43;1.58;;;1.52;;
6249;SDS011;3158;52.148;11.568;2023-03-01T14:43:45;1.67;;;1.48;;
6249;SDS011;3158;52.148;11.568;2023-03-01T14:48:49;2.78;;;2.20;;
6249;SDS011;3158;52.148;11.568;2023-03-01T14:53:50;1.58;;;1.48;;
6249;SDS011;3158;52.148;11.568;2023-03-01T14:58:53;3.42;;;1.60;;
6249;SDS011;3158;52.148;11.568;2023-03-01T15:03:54;4.15;;;1.58;;
6249;SDS011;3158;52.148;11.568;2023-03-01T15:08:55;1.40;;;1.30;;
6249;SDS011;3158;52.148;11.568;2023-03-01T15:14:00;2.03;;;1.90;;
6249;SDS011;3158;52.148;11.568;2023-03-01T15:19:02;7.63;;;2.08;;
6249;SDS011;3158;52.148;11.568;2023-03-01T15:24:23;2.17;;;1.98;;
6249;SDS011;3158;52.148;11.568;2023-03-01T15:29:26;2.53;;;1.23;;
6249;SDS011;3158;52.148;11.568;2023-03-01T15:34:30;1.25;;;1.23;;
6249;SDS011;3158;52.148;11.568;2023-03-01T15:39:39;1.50;;;1.40;;
6249;SDS011;3158;52.148;11.568;2023-03-01T15:44:43;1.92;;;1.30;;
6249;SDS011;3158;52.148;11.568;2023-03-01T15:49:45;1.63;;;1.40;;
6249;SDS011;3158;52.148;11.568;2023-03-01T15:54:46;1.35;;;0.90;;
6249;SDS011;3158;52.148;11.568;2023-03-01T15:59:47;0.73;;;0.73;;
6249;SDS011;3158;52.148;11.568;2023-03-01T16:04:49;1.10;;;1.10;;
6249;SDS011;3158;52.148;11.568;2023-03-01T16:09:50;2.60;;;1.30;;
6249;SDS011;3158;52.148;11.568;2023-03-01T16:14:51;1.30;;;1.30;;
6249;SDS011;3158;52.148;11.568;2023-03-01T16:19:53;1.38;;;1.02;;
6249;SDS011;3158;52.148;11.568;2023-03-01T16:24:54;1.10;;;0.98;;
6249;SDS011;3158;52.148;11.568;2023-03-01T16:29:55;1.50;;;1.10;;
6249;SDS011;3158;52.148;11.568;2023-03-01T16:34:56;0.75;;;0.75;;
6249;SDS011;3158;52.148;11.568;2023-03-01T16:39:57;0.80;;;0.80;;
6249;SDS011;3158;52.148;11.568;2023-03-01T16:44:58;2.25;;;1.38;;
6249;SDS011;3158;52.148;11.568;2023-03-01T16:50:04;1.13;;;1.02;;
6249;SDS011;3158;52.148;11.568;2023-03-01T16:55:06;3.25;;;1.33;;
6249;SDS011;3158;52.148;11.568;2023-03-01T17:00:10;1.10;;;1.00;;
6249;SDS011;3158;52.148;11.568;2023-03-01T17:05:12;2.75;;;1.20;;
6249;SDS011;3158;52.148;11.568;2023-03-01T17:10:14;1.42;;;1.33;;
6249;SDS011;3158;52.148;11.568;2023-03-01T17:15:15;1.17;;;1.05;;
6249;SDS011;3158;52.148;11.568;2023-03-01T17:20:16;1.73;;;1.63;;
6249;SDS011;3158;52.148;11.568;2023-03-01T17:25:17;1.80;;;0.93;;
6249;SDS011;3158;52.148;11.568;2023-03-01T17:30:19;0.85;;;0.85;;
6249;SDS011;3158;52.148;11.568;2023-03-01T17:35:20;2.63;;;1.30;;
6249;SDS011;3158;52.148;11.568;2023-03-01T17:40:21;1.55;;;1.45;;
6249;SDS011;3158;52.148;11.568;2023-03-01T17:45:22;2.10;;;1.23;;
6249;SDS011;3158;52.148;11.568;2023-03-01T17:50:23;2.80;;;2.17;;
6249;SDS011;3158;52.148;11.568;2023-03-01T17:55:24;1.88;;;1.77;;
6249;SDS011;3158;52.148;11.568;2023-03-01T18:00:25;2.65;;;1.55;;
6249;SDS011;3158;52.148;11.568;2023-03-01T18:05:27;3.03;;;2.40;;
6249;SDS011;3158;52.148;11.568;2023-03-01T18:10:31;3.70;;;2.72;;
6249;SDS011;3158;52.148;11.568;2023-03-01T18:15:33;3.60;;;2.80;;
6249;SDS011;3158;52.148;11.568;2023-03-01T18:20:34;4.40;;;2.92;;
6249;SDS011;3158;52.148;11.568;2023-03-01T18:25:38;4.03;;;2.72;;
6249;SDS011;3158;52.148;11.568;2023-03-01T18:30:39;4.88;;;2.95;;
6249;SDS011;3158;52.148;11.568;2023-03-01T18:35:40;4.90;;;3.50;;
6249;SDS011;3158;52.148;11.568;2023-03-01T18:40:42;8.10;;;3.70;;
6249;SDS011;3158;52.148;11.568;2023-03-01T18:45:44;2.97;;;2.40;;
6249;SDS011;3158;52.148;11.568;2023-03-01T18:50:46;5.53;;;3.30;;
6249;SDS011;3158;52.148;11.568;2023-03-01T18:55:47;4.13;;;3.53;;
6249;SDS011;3158;52.148;11.568;2023-03-01T19:00:48;2.85;;;2.65;;
6249;SDS011;3158;52.148;11.568;2023-03-01T19:05:49;5.32;;;4.20;;
6249;SDS011;3158;52.148;11.568;2023-03-01T19:11:00;5.82;;;3.70;;
6249;SDS011;3158;52.148;11.568;2023-03-01T19:16:03;7.38;;;3.70;;
6249;SDS011;3158;52.148;11.568;2023-03-01T19:21:04;8.00;;;4.65;;
6249;SDS011;3158;52.148;11.568;2023-03-01T19:26:07;5.05;;;4.00;;
6249;SDS011;3158;52.148;11.568;2023-03-01T19:31:16;8.43;;;4.22;;
6249;SDS011;3158;52.148;11.568;2023-03-01T19:36:18;5.35;;;3.72;;
6249;SDS011;3158;52.148;11.568;2023-03-01T19:41:20;6.45;;;4.47;;
6249;SDS011;3158;52.148;11.568;2023-03-01T19:46:23;6.75;;;4.90;;
6249;SDS011;3158;52.148;11.568;2023-03-01T19:51:25;7.30;;;5.25;;
6249;SDS011;3158;52.148;11.568;2023-03-01T19:56:26;7.68;;;4.97;;
6249;SDS011;3158;52.148;11.568;2023-03-01T20:01:27;8.32;;;4.38;;
6249;SDS011;3158;52.148;11.568;2023-03-01T20:06:29;6.63;;;3.97;;
6249;SDS011;3158;52.148;11.568;2023-03-01T20:11:30;6.13;;;5.03;;
6249;SDS011;3158;52.148;11.568;2023-03-01T20:16:32;6.55;;;4.28;;
6249;SDS011;3158;52.148;11.568;2023-03-01T20:21:33;14.48;;;6.50;;
6249;SDS011;3158;52.148;11.568;2023-03-01T20:26:34;10.88;;;5.95;;
6249;SDS011;3158;52.148;11.568;2023-03-01T20:31:36;11.33;;;5.43;;
6249;SDS011;3158;52.148;11.568;2023-03-01T20:36:38;10.20;;;5.43;;
6249;SDS011;3158;52.148;11.568;2023-03-01T20:41:40;9.60;;;5.90;;
6249;SDS011;3158;52.148;11.568;2023-03-01T20:46:42;11.57;;;5.88;;
6249;SDS011;3158;52.148;11.568;2023-03-01T20:51:43;10.93;;;4.15;;
6249;SDS011;3158;52.148;11.568;2023-03-01T20:56:44;9.25;;;4.28;;
6249;SDS011;3158;52.148;11.568;2023-03-01T21:01:45;10.77;;;4.88;;
6249;SDS011;3158;52.148;11.568;2023-03-01T21:06:46;4.47;;;3.22;;
6249;SDS011;3158;52.148;11.568;2023-03-01T21:11:48;5.90;;;3.58;;
6249;SDS011;3158;52.148;11.568;2023-03-01T21:16:49;8.75;;;4.28;;
6249;SDS011;3158;52.148;11.568;2023-03-01T21:21:51;5.53;;;3.28;;
6249;SDS011;3158;52.148;11.568;2023-03-01T21:26:52;5.37;;;3.83;;
6249;SDS011;3158;52.148;11.568;2023-03-01T21:31:53;6.87;;;3.47;;
6249;SDS011;3158;52.148;11.568;2023-03-01T21:36:54;3.65;;;3.05;;
6249;SDS011;3158;52.148;11.568;2023-03-01T21:41:56;6.43;;;3.67;;
6249;SDS011;3158;52.148;11.568;2023-03-01T21:46:58;8.65;;;3.22;;
6249;SDS011;3158;52.148;11.568;2023-03-01T21:51:59;4.80;;;3.72;;
6249;SDS011;3158;52.148;11.568;2023-03-01T21:57:00;5.70;;;2.88;;
6249;SDS011;3158;52.148;11.568;2023-03-01T22:02:01;4.37;;;3.27;;
6249;SDS011;3158;52.148;11.568;2023-03-01T22:07:02;6.80;;;2.90;;
6249;SDS011;3158;52.148;11.568;2023-03-01T22:12:03;3.20;;;2.20;;
6249;SDS011;3158;52.148;11.568;2023-03-01T22:17:04;4.03;;;2.90;;
6249;SDS011;3158;52.148;11.568;2023-03-01T22:22:06;4.77;;;3.30;;
6249;SDS011;3158;52.148;11.568;2023-03-01T22:27:07;4.80;;;2.70;;
6249;SDS011;3158;52.148;11.568;2023-03-01T22:32:08;2.70;;;2.03;;
6249;SDS011;3158;52.148;11.568;2023-03-01T22:37:09;2.37;;;2.27;;
6249;SDS011;3158;52.148;11.568;2023-03-01T22:42:10;6.57;;;2.90;;
6249;SDS011;3158;52.148;11.568;2023-03-01T22:47:11;5.93;;;3.67;;
6249;SDS011;3158;52.148;11.568;2023-03-01T22:52:12;7.57;;;4.27;;
6249;SDS011;3158;52.148;11.568;2023-03-01T22:57:14;5.80;;;4.47;;
6249;SDS011;3158;52.148;11.568;2023-03-01T23:02:15;9.53;;;5.23;;
6249;SDS011;3158;52.148;11.568;2023-03-01T23:07:16;6.13;;;4.40;;
6249;SDS011;3158;52.148;11.568;2023-03-01T23:12:17;8.23;;;4.90;;
6249;SDS011;3158;52.148;11.568;2023-03-01T23:17:18;9.63;;;5.17;;
6249;SDS011;3158;52.148;11.568;2023-03-01T23:22:19;7.68;;;4.47;;
6249;SDS011;3158;52.148;11.568;2023-03-01T23:27:20;8.00;;;4.43;;
6249;SDS011;3158;52.148;11.568;2023-03-01T23:32:22;12.30;;;4.67;;
6249;SDS011;3158;52.148;11.568;2023-03-01T23:37:27;9.10;;;4.90;;
6249;SDS011;3158;52.148;11.568;2023-03-01T23:42:28;10.80;;;4.63;;
6249;SDS011;3158;52.148;11.568;2023-03-01T23:47:29;5.93;;;3.80;;
6249;SDS011;3158;52.148;11.568;2023-03-01T23:52:35;5.27;;;3.40;;
6249;SDS011;3158;52.148;11.568;2023-03-01T23:57:38;4.43;;;3.50;;
